createdAt,value
2023-03-06T00:01:00.120Z,6.02
2023-03-06T00:03:28.594Z,5.79
2023-03-06T00:05:57.697Z,5.95
2023-03-06T00:08:26.158Z,6.06
2023-03-06T00:10:53.903Z,6.04
2023-03-06T00:13:22.213Z,6.12
2023-03-06T00:15:50.010Z,5.98
2023-03-06T00:18:17.208Z,5.99
2023-03-06T00:20:48.026Z,5.87
2023-03-06T00:23:15.558Z,5.75
2023-03-06T00:25:46.689Z,5.76
2023-03-06T00:28:15.713Z,5.77
2023-03-06T00:30:43.439Z,5.88
2023-03-06T00:33:11.509Z,5.99
2023-03-06T00:35:40.852Z,5.68
2023-03-06T00:38:11.467Z,5.70
2023-03-06T00:40:38.483Z,5.78
2023-03-06T00:43:05.465Z,5.91
2023-03-06T00:45:32.876Z,5.96
2023-03-06T00:48:04.756Z,5.79
2023-03-06T00:50:35.256Z,5.92
2023-03-06T00:53:02.349Z,5.92
2023-03-06T00:55:30.914Z,5.77
2023-03-06T00:58:00.316Z,5.80
2023-03-06T01:00:27.420Z,5.75
2023-03-06T01:02:54.445Z,5.96
2023-03-06T01:05:21.941Z,6.01
2023-03-06T01:07:49.064Z,6.12
2023-03-06T01:10:16.006Z,5.94
2023-03-06T01:12:48.035Z,5.79
2023-03-06T01:15:15.220Z,6.01
2023-03-06T01:17:42.221Z,6.03
2023-03-06T01:20:16.895Z,6.02
2023-03-06T01:22:44.027Z,6.07
2023-03-06T01:25:13.633Z,5.94
2023-03-06T01:27:40.980Z,5.96
2023-03-06T01:30:11.987Z,5.86
2023-03-06T01:32:44.159Z,5.69
2023-03-06T01:35:12.937Z,5.67
2023-03-06T01:37:41.005Z,5.69
2023-03-06T01:40:12.619Z,5.74
2023-03-06T01:42:40.730Z,5.65
2023-03-06T01:45:15.534Z,5.50
2023-03-06T01:47:44.879Z,5.77
2023-03-06T01:50:12.844Z,5.77
2023-03-06T01:52:58.640Z,5.73
2023-03-06T01:55:32.782Z,5.53
2023-03-06T01:58:07.350Z,5.72
2023-03-06T02:00:34.581Z,5.44
2023-03-06T02:03:22.044Z,5.58
2023-03-06T02:05:49.360Z,5.46
2023-03-06T02:08:21.429Z,5.45
2023-03-06T02:11:13.408Z,5.36
2023-03-06T02:13:44.942Z,5.27
2023-03-06T02:16:15.995Z,5.36
2023-03-06T02:18:44.406Z,5.35
2023-03-06T02:21:23.518Z,5.20
2023-03-06T02:24:12.243Z,4.80
2023-03-06T02:26:44.665Z,4.93
2023-03-06T02:29:15.443Z,4.98
2023-03-06T02:31:42.584Z,4.72
2023-03-06T02:34:15.802Z,4.66
2023-03-06T02:36:49.221Z,4.78
2023-03-06T02:39:24.031Z,4.88
2023-03-06T02:41:51.022Z,4.78
2023-03-06T02:44:18.232Z,4.67
2023-03-06T02:46:48.249Z,4.82
2023-03-06T02:49:17.750Z,4.78
2023-03-06T02:51:45.109Z,4.83
2023-03-06T02:54:12.239Z,4.85
2023-03-06T02:56:39.708Z,4.91
2023-03-06T02:59:12.130Z,4.98
2023-03-06T03:01:39.306Z,4.84
2023-03-06T03:04:08.905Z,4.86
2023-03-06T03:06:38.141Z,4.98
2023-03-06T03:09:05.304Z,5.02
2023-03-06T03:11:34.845Z,4.78
2023-03-06T03:14:02.031Z,4.74
2023-03-06T03:16:29.126Z,4.72
2023-03-06T03:18:56.079Z,4.80
2023-03-06T03:21:23.201Z,4.78
2023-03-06T03:23:52.960Z,4.85
2023-03-06T03:26:22.144Z,4.91
2023-03-06T03:28:52.200Z,4.75
2023-03-06T03:31:19.322Z,4.81
2023-03-06T03:33:46.326Z,4.91
2023-03-06T03:36:15.717Z,4.79
2023-03-06T03:38:42.699Z,4.64
2023-03-06T03:41:09.725Z,4.66
2023-03-06T03:43:46.520Z,4.58
2023-03-06T03:46:13.608Z,4.63
2023-03-06T03:48:40.748Z,4.79
2023-03-06T03:51:13.929Z,5.03
2023-03-06T03:53:43.361Z,4.88
2023-03-06T03:56:11.554Z,5.01
2023-03-06T03:58:40.713Z,4.89
2023-03-06T04:01:10.602Z,4.89
2023-03-06T04:03:37.570Z,4.97
2023-03-06T04:06:04.799Z,5.14
2023-03-06T04:08:34.320Z,5.22
2023-03-06T04:11:07.387Z,5.36
2023-03-06T04:13:34.311Z,5.21
2023-03-06T04:16:03.744Z,5.05
2023-03-06T04:18:30.701Z,5.16
2023-03-06T04:20:57.969Z,4.97
2023-03-06T04:23:24.852Z,4.86
2023-03-06T04:25:52.366Z,4.98
2023-03-06T04:28:20.042Z,4.78
2023-03-06T04:30:49.520Z,4.61
2023-03-06T04:33:16.572Z,4.45
2023-03-06T04:35:43.495Z,4.72
2023-03-06T04:38:10.512Z,4.77
2023-03-06T04:40:39.901Z,4.79
2023-03-06T04:43:07.028Z,4.69
2023-03-06T04:45:35.217Z,4.90
2023-03-06T04:48:02.554Z,4.95
2023-03-06T04:50:32.667Z,4.93
2023-03-06T04:53:03.542Z,4.81
2023-03-06T04:55:30.990Z,4.68
2023-03-06T04:58:00.562Z,4.66
2023-03-06T05:00:31.670Z,4.55
2023-03-06T05:03:03.177Z,4.34
2023-03-06T05:05:30.709Z,4.42
2023-03-06T05:07:57.692Z,4.55
2023-03-06T05:10:24.903Z,4.51
2023-03-06T05:12:51.971Z,4.50
2023-03-06T05:15:19.186Z,4.21
2023-03-06T05:17:47.504Z,4.14
2023-03-06T05:20:16.639Z,4.47
2023-03-06T05:22:46.440Z,4.54
2023-03-06T05:25:13.829Z,4.74
2023-03-06T05:27:41.762Z,4.97
2023-03-06T05:30:13.000Z,5.07
2023-03-06T05:32:42.723Z,5.12
2023-03-06T05:35:21.115Z,4.93
2023-03-06T05:37:51.454Z,4.94
2023-03-06T05:40:19.125Z,4.75
2023-03-06T05:42:46.138Z,4.74
2023-03-06T05:45:13.164Z,4.49
2023-03-06T05:47:40.155Z,4.35
2023-03-06T05:50:08.349Z,4.31
2023-03-06T05:52:40.054Z,4.36
2023-03-06T05:55:08.272Z,4.38
2023-03-06T05:57:35.562Z,4.28
2023-03-06T06:00:05.990Z,4.08
2023-03-06T06:02:33.037Z,4.25
2023-03-06T06:05:02.862Z,4.38
2023-03-06T06:07:29.921Z,4.25
2023-03-06T06:09:56.909Z,4.00
2023-03-06T06:12:24.023Z,4.07
2023-03-06T06:14:54.104Z,4.28
2023-03-06T06:17:23.243Z,4.60
2023-03-06T06:19:52.567Z,4.51
2023-03-06T06:22:19.415Z,4.32
2023-03-06T06:24:48.510Z,4.36
2023-03-06T06:27:15.382Z,4.46
2023-03-06T06:29:42.299Z,4.12
2023-03-06T06:32:09.220Z,4.38
2023-03-06T06:34:36.463Z,4.44
2023-03-06T06:37:03.408Z,4.42
2023-03-06T06:39:32.719Z,4.45
2023-03-06T06:42:26.164Z,4.57
2023-03-06T06:44:51.445Z,4.56
2023-03-06T06:47:23.674Z,4.70
2023-03-06T06:49:53.037Z,4.73
2023-03-06T06:52:20.347Z,4.86
2023-03-06T06:54:52.141Z,4.66
2023-03-06T06:57:18.966Z,4.73
2023-03-06T06:59:46.041Z,4.50
2023-03-06T07:02:16.560Z,4.44
2023-03-06T07:05:02.474Z,4.59
2023-03-06T07:07:31.132Z,4.88
2023-03-06T07:10:00.518Z,4.90
2023-03-06T07:12:27.431Z,5.04
2023-03-06T07:14:56.801Z,5.18
2023-03-06T07:17:23.682Z,5.14
2023-03-06T07:19:55.333Z,5.11
2023-03-06T07:22:22.275Z,5.06
2023-03-06T07:24:53.898Z,5.01
2023-03-06T07:27:23.786Z,4.96
2023-03-06T07:29:55.480Z,5.29
2023-03-06T07:32:22.596Z,5.39
2023-03-06T07:34:51.969Z,5.66
2023-03-06T07:37:18.885Z,5.60
2023-03-06T07:39:47.926Z,5.10
2023-03-06T07:42:15.587Z,4.78
2023-03-06T07:44:42.683Z,5.46
2023-03-06T07:47:12.604Z,5.84
2023-03-06T07:49:39.664Z,6.17
2023-03-06T07:52:09.240Z,6.05
2023-03-06T07:54:38.549Z,6.24
2023-03-06T07:57:05.679Z,6.42
2023-03-06T07:59:32.583Z,6.58
2023-03-06T08:02:04.506Z,6.63
2023-03-06T08:04:31.322Z,6.79
2023-03-06T08:07:00.206Z,6.88
2023-03-06T08:09:29.787Z,6.58
2023-03-06T08:12:01.395Z,7.07
2023-03-06T08:14:28.276Z,7.43
2023-03-06T08:16:58.226Z,6.91
2023-03-06T08:19:25.099Z,6.96
2023-03-06T08:21:52.136Z,6.84
2023-03-06T08:24:21.560Z,7.19
2023-03-06T08:26:48.471Z,7.32
2023-03-06T08:29:18.432Z,7.98
2023-03-06T08:31:47.095Z,8.60
2023-03-06T08:34:20.201Z,9.39
2023-03-06T08:36:47.184Z,9.39
2023-03-06T08:39:15.141Z,10.06
2023-03-06T08:41:47.007Z,9.98
2023-03-06T08:44:13.999Z,10.06
2023-03-06T08:46:43.426Z,9.84
2023-03-06T08:49:12.718Z,9.64
2023-03-06T08:51:39.674Z,9.54
2023-03-06T08:54:09.051Z,9.66
2023-03-06T08:56:35.904Z,9.74
2023-03-06T08:59:04.986Z,9.86
2023-03-06T09:01:36.661Z,9.66
2023-03-06T09:04:10.919Z,9.68
2023-03-06T09:06:41.306Z,9.26
2023-03-06T09:09:11.930Z,9.11
2023-03-06T09:11:39.948Z,10.17
2023-03-06T09:14:06.977Z,11.21
2023-03-06T09:16:34.162Z,11.28
2023-03-06T09:19:01.304Z,10.77
2023-03-06T09:21:30.434Z,10.00
2023-03-06T09:23:59.806Z,9.43
2023-03-06T09:26:39.575Z,8.17
2023-03-06T09:29:13.671Z,7.98
2023-03-06T09:31:40.607Z,8.06
2023-03-06T09:34:07.576Z,7.65
2023-03-06T09:36:49.275Z,7.78
2023-03-06T09:39:20.669Z,7.99
2023-03-06T09:41:50.137Z,8.12
2023-03-06T09:44:22.507Z,8.47
2023-03-06T09:47:17.307Z,8.77
2023-03-06T09:50:23.859Z,8.71
2023-03-06T09:53:07.672Z,8.99
2023-03-06T09:55:41.463Z,10.38
2023-03-06T09:58:27.529Z,14.93
2023-03-06T10:01:06.489Z,16.53
2023-03-06T10:04:08.116Z,19.01
2023-03-06T10:07:01.679Z,20.32
2023-03-06T10:09:52.369Z,19.63
2023-03-06T10:12:45.151Z,21.12
2023-03-06T10:15:26.286Z,23.26
2023-03-06T10:17:53.491Z,22.76
2023-03-06T10:20:33.629Z,24.05
2023-03-06T10:23:26.441Z,25.69
2023-03-06T10:26:07.236Z,26.71
2023-03-06T10:28:40.729Z,23.64
2023-03-06T10:31:23.489Z,23.23
2023-03-06T10:33:58.238Z,25.29
2023-03-06T10:36:28.428Z,23.31
2023-03-06T10:38:59.276Z,23.49
2023-03-06T10:41:35.796Z,23.22
2023-03-06T10:44:05.754Z,21.81
2023-03-06T10:46:38.019Z,22.81
2023-03-06T10:49:24.278Z,20.56
2023-03-06T10:52:13.689Z,17.10
2023-03-06T10:54:44.668Z,16.64
2023-03-06T10:57:34.112Z,16.58
2023-03-06T11:00:15.355Z,18.13
2023-03-06T11:02:44.925Z,18.98
2023-03-06T11:05:20.737Z,18.01
2023-03-06T11:07:59.476Z,16.14
2023-03-06T11:10:30.351Z,15.16
2023-03-06T11:13:01.535Z,14.49
2023-03-06T11:15:29.617Z,13.67
2023-03-06T11:18:28.659Z,13.25
2023-03-06T11:20:58.186Z,13.57
2023-03-06T11:23:47.778Z,15.51
2023-03-06T11:26:35.732Z,18.55
2023-03-06T11:29:15.370Z,20.59
2023-03-06T11:32:11.332Z,21.85
2023-03-06T11:35:06.195Z,18.94
2023-03-06T11:37:43.166Z,17.30
2023-03-06T11:40:59.042Z,15.88
2023-03-06T11:43:47.170Z,14.10
2023-03-06T11:46:48.653Z,13.37
2023-03-06T11:49:34.956Z,12.85
2023-03-06T11:52:14.913Z,13.87
2023-03-06T11:54:43.886Z,15.13
2023-03-06T11:57:23.245Z,19.08
2023-03-06T12:00:21.620Z,22.67
2023-03-06T12:03:17.740Z,25.30
2023-03-06T12:06:11.330Z,25.33
2023-03-06T12:09:01.289Z,22.08
2023-03-06T12:11:47.275Z,18.99
2023-03-06T12:14:39.604Z,16.69
2023-03-06T12:17:33.069Z,18.07
2023-03-06T12:20:56.589Z,17.70
2023-03-06T12:23:32.276Z,18.19
2023-03-06T12:26:23.606Z,17.24
2023-03-06T12:29:20.942Z,17.49
2023-03-06T12:32:35.238Z,20.13
2023-03-06T12:35:28.298Z,21.89
2023-03-06T12:38:22.482Z,23.76
2023-03-06T12:41:22.835Z,24.60
2023-03-06T12:44:13.714Z,24.74
2023-03-06T12:47:00.539Z,24.12
2023-03-06T12:49:38.509Z,24.63
2023-03-06T12:52:07.741Z,24.76
2023-03-06T12:54:41.668Z,25.84
2023-03-06T12:57:17.204Z,26.78
2023-03-06T12:59:48.647Z,26.06
2023-03-06T13:02:39.915Z,26.02
2023-03-06T13:05:47.182Z,25.89
2023-03-06T13:08:24.518Z,26.12
2023-03-06T13:11:30.890Z,24.42
2023-03-06T13:14:00.466Z,24.87
2023-03-06T13:16:34.991Z,25.47
2023-03-06T13:19:18.522Z,26.70
2023-03-06T13:21:54.769Z,26.47
2023-03-06T13:24:35.582Z,24.80
2023-03-06T13:27:13.539Z,23.74
2023-03-06T13:29:40.349Z,23.89
2023-03-06T13:32:17.223Z,24.28
2023-03-06T13:34:48.129Z,24.38
2023-03-06T13:37:18.587Z,23.52
2023-03-06T13:39:58.503Z,22.77
2023-03-06T13:42:42.854Z,22.18
2023-03-06T13:45:24.694Z,21.87
2023-03-06T13:48:21.110Z,22.32
2023-03-06T13:50:43.809Z,20.95
2023-03-06T13:53:49.045Z,19.66
2023-03-06T13:56:27.136Z,20.32
2023-03-06T13:59:25.472Z,20.63
2023-03-06T14:02:17.294Z,18.36
2023-03-06T14:05:00.241Z,17.09
2023-03-06T14:07:33.621Z,16.03
2023-03-06T14:10:24.673Z,14.39
2023-03-06T14:12:51.463Z,14.34
2023-03-06T14:15:22.715Z,13.40
2023-03-06T14:18:13.968Z,13.21
2023-03-06T14:20:42.299Z,12.31
2023-03-06T14:23:23.650Z,11.63
2023-03-06T14:26:07.881Z,11.76
2023-03-06T14:28:35.689Z,11.69
2023-03-06T14:31:05.275Z,11.33
2023-03-06T14:33:57.435Z,11.50
2023-03-06T14:36:52.357Z,11.62
2023-03-06T14:39:33.507Z,11.49
2023-03-06T14:42:25.357Z,11.37
2023-03-06T14:45:13.622Z,11.28
2023-03-06T14:47:40.536Z,10.93
2023-03-06T14:50:27.381Z,10.58
2023-03-06T14:53:00.998Z,10.71
2023-03-06T14:55:29.780Z,10.38
2023-03-06T14:58:04.782Z,10.64
2023-03-06T15:00:40.851Z,10.78
2023-03-06T15:03:21.939Z,10.92
2023-03-06T15:05:52.192Z,11.59
2023-03-06T15:08:27.879Z,12.08
2023-03-06T15:11:02.936Z,12.73
2023-03-06T15:13:32.938Z,13.02
2023-03-06T15:16:13.958Z,12.99
2023-03-06T15:18:58.378Z,12.74
2023-03-06T15:21:34.932Z,12.28
2023-03-06T15:24:01.840Z,11.94
2023-03-06T15:26:36.930Z,11.86
2023-03-06T15:29:11.090Z,11.72
2023-03-06T15:31:41.519Z,11.72
2023-03-06T15:34:10.974Z,11.49
2023-03-06T15:36:46.256Z,11.44
2023-03-06T15:39:40.779Z,11.22
2023-03-06T15:42:21.004Z,11.05
2023-03-06T15:44:51.676Z,11.43
2023-03-06T15:47:21.615Z,11.55
2023-03-06T15:49:53.194Z,11.13
2023-03-06T15:52:23.720Z,10.66
2023-03-06T15:54:50.723Z,10.70
2023-03-06T15:57:25.218Z,10.68
2023-03-06T15:59:53.098Z,10.72
2023-03-06T16:02:22.784Z,10.33
2023-03-06T16:04:50.638Z,10.28
2023-03-06T16:07:17.655Z,10.22
2023-03-06T16:09:44.980Z,9.95
2023-03-06T16:12:23.692Z,9.70
2023-03-06T16:14:50.677Z,8.90
2023-03-06T16:17:18.153Z,8.56
2023-03-06T16:19:47.496Z,8.93
2023-03-06T16:22:19.238Z,8.96
2023-03-06T16:24:51.947Z,9.11
2023-03-06T16:27:25.605Z,9.14
2023-03-06T16:29:53.030Z,8.90
2023-03-06T16:32:19.937Z,8.57
2023-03-06T16:34:47.111Z,8.72
2023-03-06T16:37:14.282Z,8.75
2023-03-06T16:39:43.706Z,8.93
2023-03-06T16:42:17.020Z,8.82
2023-03-06T16:44:44.048Z,8.60
2023-03-06T16:47:12.500Z,8.25
2023-03-06T16:49:41.684Z,8.26
2023-03-06T16:52:13.420Z,8.01
2023-03-06T16:54:44.586Z,8.25
2023-03-06T16:57:14.843Z,8.26
2023-03-06T16:59:48.790Z,8.25
2023-03-06T17:02:18.683Z,8.24
2023-03-06T17:04:45.625Z,8.03
2023-03-06T17:07:12.477Z,7.77
2023-03-06T17:09:43.263Z,8.00
2023-03-06T17:12:12.695Z,7.84
2023-03-06T17:14:40.649Z,7.52
2023-03-06T17:17:07.601Z,7.32
2023-03-06T17:19:37.552Z,7.30
2023-03-06T17:22:04.514Z,7.45
2023-03-06T17:24:31.464Z,7.15
2023-03-06T17:26:58.312Z,7.35
2023-03-06T17:29:25.297Z,7.35
2023-03-06T17:31:55.246Z,7.51
2023-03-06T17:34:24.509Z,7.37
2023-03-06T17:36:53.700Z,7.31
2023-03-06T17:39:23.147Z,7.20
2023-03-06T17:41:50.211Z,7.11
2023-03-06T17:44:17.195Z,7.15
2023-03-06T17:46:49.917Z,6.82
2023-03-06T17:49:21.439Z,6.95
2023-03-06T17:51:48.342Z,6.71
2023-03-06T17:54:15.752Z,6.78
2023-03-06T17:56:43.229Z,6.56
2023-03-06T17:59:10.592Z,6.68
2023-03-06T18:01:37.726Z,6.82
2023-03-06T18:04:04.880Z,6.67
2023-03-06T18:06:35.837Z,6.72
2023-03-06T18:09:10.038Z,6.62
2023-03-06T18:11:39.121Z,6.57
2023-03-06T18:14:06.014Z,6.73
2023-03-06T18:16:35.718Z,6.36
2023-03-06T18:19:02.980Z,6.47
2023-03-06T18:21:29.864Z,6.57
2023-03-06T18:23:58.159Z,6.51
2023-03-06T18:26:29.670Z,6.48
2023-03-06T18:29:04.429Z,6.46
2023-03-06T18:31:35.544Z,6.12
2023-03-06T18:34:07.678Z,6.02
2023-03-06T18:36:38.523Z,6.12
2023-03-06T18:39:10.330Z,6.20
2023-03-06T18:41:40.298Z,6.11
2023-03-06T18:44:13.888Z,5.90
2023-03-06T18:46:41.124Z,5.57
2023-03-06T18:49:09.009Z,5.67
2023-03-06T18:51:36.039Z,5.73
2023-03-06T18:54:05.011Z,5.86
2023-03-06T18:56:33.150Z,5.82
2023-03-06T18:59:10.956Z,5.59
2023-03-06T19:01:37.980Z,5.46
2023-03-06T19:04:05.413Z,5.21
2023-03-06T19:06:32.980Z,5.19
2023-03-06T19:09:02.472Z,5.13
2023-03-06T19:11:32.416Z,4.99
2023-03-06T19:13:59.946Z,4.82
2023-03-06T19:16:30.128Z,4.97
2023-03-06T19:18:57.986Z,5.15
2023-03-06T19:21:27.495Z,5.06
2023-03-06T19:23:56.165Z,4.87
2023-03-06T19:26:26.990Z,4.85
2023-03-06T19:28:56.492Z,4.81
2023-03-06T19:31:27.014Z,4.75
2023-03-06T19:33:56.714Z,5.08
2023-03-06T19:36:33.890Z,4.99
2023-03-06T19:39:07.057Z,5.15
2023-03-06T19:41:34.569Z,4.98
2023-03-06T19:44:05.806Z,4.92
2023-03-06T19:46:34.553Z,4.95
2023-03-06T19:49:05.615Z,4.77
2023-03-06T19:51:32.938Z,4.75
2023-03-06T19:54:02.109Z,4.78
2023-03-06T19:56:33.675Z,4.77
2023-03-06T19:59:00.909Z,4.88
2023-03-06T20:01:30.627Z,4.95
2023-03-06T20:04:01.267Z,4.94
2023-03-06T20:06:33.758Z,4.75
2023-03-06T20:09:08.602Z,4.62
2023-03-06T20:11:36.001Z,4.57
2023-03-06T20:14:05.907Z,4.63
2023-03-06T20:16:33.908Z,4.69
2023-03-06T20:19:02.316Z,4.79
2023-03-06T20:21:37.533Z,4.75
2023-03-06T20:24:16.564Z,4.88
2023-03-06T20:26:46.228Z,4.96
2023-03-06T20:29:14.159Z,4.76
2023-03-06T20:31:41.122Z,4.50
2023-03-06T20:34:10.688Z,4.26
2023-03-06T20:36:40.558Z,4.21
2023-03-06T20:39:13.164Z,4.16
2023-03-06T20:41:40.421Z,3.85
2023-03-06T20:44:13.566Z,3.85
2023-03-06T20:46:40.926Z,3.83
2023-03-06T20:49:09.402Z,3.87
2023-03-06T20:51:40.509Z,3.78
2023-03-06T20:54:12.958Z,3.80
2023-03-06T20:56:46.920Z,3.83
2023-03-06T20:59:14.891Z,3.86
2023-03-06T21:01:45.063Z,3.76
2023-03-06T21:04:14.073Z,3.84
2023-03-06T21:06:46.463Z,3.86
2023-03-06T21:09:16.692Z,3.72
2023-03-06T21:11:44.344Z,3.76
2023-03-06T21:14:14.390Z,3.62
2023-03-06T21:16:44.432Z,3.55
2023-03-06T21:19:13.811Z,3.57
2023-03-06T21:21:41.060Z,3.69
2023-03-06T21:24:08.682Z,3.82
2023-03-06T21:26:35.661Z,3.65
2023-03-06T21:29:06.697Z,3.80
2023-03-06T21:31:34.205Z,3.61
2023-03-06T21:34:04.799Z,3.65
2023-03-06T21:36:35.473Z,3.75
2023-03-06T21:39:06.080Z,3.71
2023-03-06T21:41:33.622Z,3.79
2023-03-06T21:44:04.026Z,3.71
2023-03-06T21:46:31.367Z,3.56
2023-03-06T21:48:59.067Z,3.40
2023-03-06T21:51:31.719Z,3.41
2023-03-06T21:53:59.088Z,3.52
2023-03-06T21:56:28.396Z,3.57
2023-03-06T21:58:58.318Z,3.61
2023-03-06T22:01:28.875Z,3.59
2023-03-06T22:04:00.369Z,3.49
2023-03-06T22:06:30.082Z,3.47
2023-03-06T22:08:59.331Z,3.54
2023-03-06T22:11:31.213Z,3.43
2023-03-06T22:13:59.860Z,3.27
2023-03-06T22:16:27.204Z,3.47
2023-03-06T22:18:56.981Z,3.56
2023-03-06T22:21:26.416Z,3.55
2023-03-06T22:23:57.821Z,3.55
2023-03-06T22:26:26.944Z,3.59
2023-03-06T22:28:54.533Z,3.62
2023-03-06T22:31:25.096Z,3.39
2023-03-06T22:33:58.119Z,3.43
2023-03-06T22:36:25.742Z,3.48
2023-03-06T22:38:59.821Z,3.45
2023-03-06T22:41:27.912Z,3.48
2023-03-06T22:44:01.788Z,3.57
2023-03-06T22:46:29.318Z,3.63
2023-03-06T22:49:00.414Z,3.69
2023-03-06T22:51:29.478Z,3.78
2023-03-06T22:53:56.594Z,3.91
2023-03-06T22:56:26.474Z,3.84
2023-03-06T22:58:53.621Z,3.79
2023-03-06T23:01:25.146Z,4.02
2023-03-06T23:03:58.389Z,4.07
2023-03-06T23:06:39.636Z,3.91
2023-03-06T23:09:20.461Z,4.00
2023-03-06T23:11:50.503Z,4.06
2023-03-06T23:14:21.427Z,3.84
2023-03-06T23:16:51.314Z,3.88
2023-03-06T23:19:18.137Z,3.70
2023-03-06T23:21:45.278Z,3.81
2023-03-06T23:24:15.550Z,3.88
2023-03-06T23:26:44.767Z,3.64
2023-03-06T23:29:11.874Z,3.66
2023-03-06T23:31:41.448Z,3.73
2023-03-06T23:34:11.486Z,3.77
2023-03-06T23:36:38.427Z,3.70
2023-03-06T23:39:05.299Z,3.67
2023-03-06T23:41:32.127Z,3.77
2023-03-06T23:43:59.225Z,3.86
2023-03-06T23:46:26.474Z,3.75
2023-03-06T23:48:55.487Z,3.88
2023-03-06T23:51:23.081Z,3.77
2023-03-06T23:53:59.662Z,3.79
2023-03-06T23:56:29.045Z,3.74
2023-03-06T23:58:56.207Z,3.73
